createdAt,value
2022-09-18T00:04:00.251Z,93.31
2022-09-18T00:09:05.326Z,93.57
2022-09-18T00:14:09.240Z,94.30
2022-09-18T00:19:11.243Z,94.32
2022-09-18T00:24:16.875Z,94.42
2022-09-18T00:29:18.404Z,94.63
2022-09-18T00:34:19.551Z,94.62
2022-09-18T00:39:20.691Z,94.67
2022-09-18T00:44:44.333Z,94.99
2022-09-18T00:49:52.681Z,94.80
2022-09-18T00:55:01.922Z,95.04
2022-09-18T01:00:10.036Z,95.10
2022-09-18T01:05:14.056Z,95.15
2022-09-18T01:10:41.229Z,95.30
2022-09-18T01:16:07.380Z,95.37
2022-09-18T01:21:39.229Z,95.34
2022-09-18T01:27:04.217Z,95.36
2022-09-18T01:32:17.354Z,95.28
2022-09-18T01:37:24.608Z,95.23
2022-09-18T01:42:28.891Z,95.45
2022-09-18T01:47:38.004Z,95.77
2022-09-18T01:52:50.260Z,96.08
2022-09-18T01:57:57.498Z,96.02
2022-09-18T02:03:24.489Z,96.16
2022-09-18T02:08:47.467Z,96.36
2022-09-18T02:13:54.694Z,96.31
2022-09-18T02:19:00.362Z,96.43
2022-09-18T02:24:09.077Z,96.72
2022-09-18T02:29:11.802Z,97.03
2022-09-18T02:34:12.943Z,96.84
2022-09-18T02:39:21.382Z,96.75
2022-09-18T02:44:50.253Z,96.72
2022-09-18T02:49:57.309Z,96.77
2022-09-18T02:55:12.700Z,96.48
2022-09-18T03:00:17.863Z,96.26
2022-09-18T03:05:19.126Z,96.34
2022-09-18T03:10:20.260Z,96.00
2022-09-18T03:15:21.652Z,96.01
2022-09-18T03:20:22.669Z,95.92
2022-09-18T03:25:23.756Z,95.98
2022-09-18T03:30:24.939Z,96.29
2022-09-18T03:35:26.397Z,96.60
2022-09-18T03:40:28.598Z,96.28
2022-09-18T03:45:29.728Z,96.13
2022-09-18T03:50:30.816Z,95.94
2022-09-18T03:55:32.883Z,95.92
2022-09-18T04:00:34.334Z,95.91
2022-09-18T04:05:35.545Z,95.99
2022-09-18T04:10:36.798Z,95.78
2022-09-18T04:15:37.882Z,95.52
2022-09-18T04:20:39.119Z,95.64
2022-09-18T04:25:40.957Z,95.65
2022-09-18T04:30:42.889Z,95.50
2022-09-18T04:35:44.059Z,95.59
2022-09-18T04:40:52.705Z,95.59
2022-09-18T04:45:54.926Z,95.49
2022-09-18T04:50:56.078Z,95.58
2022-09-18T04:55:57.379Z,95.46
2022-09-18T05:00:58.781Z,94.90
2022-09-18T05:06:00.163Z,94.76
2022-09-18T05:11:03.637Z,94.75
2022-09-18T05:16:05.875Z,94.35
2022-09-18T05:21:07.478Z,94.41
2022-09-18T05:26:08.827Z,94.09
2022-09-18T05:31:10.138Z,94.17
2022-09-18T05:36:12.445Z,94.37
2022-09-18T05:41:14.822Z,94.03
2022-09-18T05:46:16.063Z,93.92
2022-09-18T05:51:17.363Z,93.74
2022-09-18T05:56:18.926Z,93.80
2022-09-18T06:01:20.059Z,93.61
2022-09-18T06:06:21.183Z,93.15
2022-09-18T06:11:24.918Z,92.81
2022-09-18T06:16:27.820Z,92.57
2022-09-18T06:21:29.040Z,92.06
2022-09-18T06:26:30.716Z,91.81
2022-09-18T06:31:31.999Z,90.43
2022-09-18T06:36:33.393Z,90.32
2022-09-18T06:41:34.565Z,90.49
2022-09-18T06:46:37.338Z,89.93
2022-09-18T06:51:39.864Z,89.98
2022-09-18T06:56:41.856Z,89.90
2022-09-18T07:01:43.494Z,89.55
2022-09-18T07:06:45.465Z,89.04
2022-09-18T07:11:46.620Z,89.73
2022-09-18T07:16:47.866Z,89.17
2022-09-18T07:21:51.129Z,89.06
2022-09-18T07:26:52.448Z,89.22
2022-09-18T07:31:53.624Z,89.08
2022-09-18T07:36:56.154Z,88.97
2022-09-18T07:41:57.320Z,88.55
2022-09-18T07:46:58.493Z,88.15
2022-09-18T07:52:01.257Z,88.02
2022-09-18T07:57:02.744Z,87.62
2022-09-18T08:02:05.237Z,87.52
2022-09-18T08:07:06.816Z,87.09
2022-09-18T08:12:08.331Z,86.33
2022-09-18T08:17:10.563Z,85.55
2022-09-18T08:22:11.739Z,85.12
2022-09-18T08:27:13.044Z,84.29
2022-09-18T08:32:15.506Z,84.66
2022-09-18T08:37:16.891Z,84.63
2022-09-18T08:42:25.907Z,84.54
2022-09-18T08:47:36.869Z,84.55
2022-09-18T08:52:46.164Z,84.65
2022-09-18T08:57:55.526Z,83.98
2022-09-18T09:03:27.173Z,83.71
2022-09-18T09:08:53.272Z,83.56
2022-09-18T09:14:13.282Z,83.11
2022-09-18T09:19:36.640Z,83.14
2022-09-18T09:25:05.413Z,83.39
2022-09-18T09:30:29.246Z,83.71
2022-09-18T09:35:46.318Z,83.68
2022-09-18T09:40:52.865Z,84.07
2022-09-18T09:45:58.986Z,84.32
2022-09-18T09:51:22.433Z,84.18
2022-09-18T09:56:38.399Z,84.85
2022-09-18T10:01:58.707Z,84.47
2022-09-18T10:07:29.265Z,84.05
2022-09-18T10:12:58.290Z,84.30
2022-09-18T10:18:03.363Z,84.18
2022-09-18T10:23:14.309Z,84.30
2022-09-18T10:28:18.624Z,83.93
2022-09-18T10:33:33.282Z,83.89
2022-09-18T10:38:37.054Z,83.68
2022-09-18T10:43:55.149Z,83.67
2022-09-18T10:49:00.619Z,83.91
2022-09-18T10:54:13.813Z,84.32
2022-09-18T10:59:34.148Z,84.15
2022-09-18T11:04:36.096Z,84.53
2022-09-18T11:09:41.081Z,83.96
2022-09-18T11:14:50.743Z,84.01
2022-09-18T11:19:55.599Z,84.20
2022-09-18T11:25:15.573Z,84.27
2022-09-18T11:30:23.426Z,84.45
2022-09-18T11:35:28.779Z,84.14
2022-09-18T11:40:47.550Z,83.97
2022-09-18T11:46:20.509Z,83.96
2022-09-18T11:51:36.006Z,83.67
2022-09-18T11:56:43.626Z,83.14
2022-09-18T12:01:49.314Z,82.48
2022-09-18T12:07:13.577Z,81.93
2022-09-18T12:12:25.897Z,81.90
2022-09-18T12:17:36.169Z,81.79
2022-09-18T12:22:58.064Z,81.84
2022-09-18T12:28:40.926Z,81.32
2022-09-18T12:34:00.895Z,80.70
2022-09-18T12:39:37.577Z,80.65
2022-09-18T12:45:16.448Z,79.77
2022-09-18T12:50:36.717Z,79.37
2022-09-18T12:56:15.439Z,78.45
2022-09-18T13:01:40.084Z,78.88
2022-09-18T13:06:48.999Z,78.87
2022-09-18T13:11:57.916Z,78.80
2022-09-18T13:17:12.214Z,78.41
2022-09-18T13:22:18.027Z,78.61
2022-09-18T13:27:21.805Z,77.31
2022-09-18T13:32:34.007Z,77.36
2022-09-18T13:37:38.524Z,77.24
2022-09-18T13:42:41.950Z,76.58
2022-09-18T13:48:08.872Z,75.50
2022-09-18T13:53:32.848Z,74.07
2022-09-18T13:58:48.552Z,73.29
2022-09-18T14:03:50.885Z,73.43
2022-09-18T14:08:53.113Z,73.34
2022-09-18T14:13:58.167Z,73.81
2022-09-18T14:19:03.745Z,73.16
2022-09-18T14:24:22.415Z,73.09
2022-09-18T14:29:31.220Z,73.02
2022-09-18T14:34:53.108Z,73.10
2022-09-18T14:39:58.003Z,73.21
2022-09-18T14:45:24.565Z,73.23
2022-09-18T14:50:37.112Z,73.27
2022-09-18T14:55:40.897Z,73.35
2022-09-18T15:00:53.746Z,73.90
2022-09-18T15:06:14.211Z,72.80
2022-09-18T15:11:19.689Z,72.14
2022-09-18T15:16:28.684Z,70.91
2022-09-18T15:21:33.464Z,71.05
2022-09-18T15:26:41.695Z,71.82
2022-09-18T15:31:46.048Z,71.96
2022-09-18T15:37:00.287Z,72.58
2022-09-18T15:42:20.460Z,72.86
2022-09-18T15:47:44.322Z,73.29
2022-09-18T15:53:24.711Z,73.84
2022-09-18T15:58:44.838Z,74.50
2022-09-18T16:03:48.444Z,75.17
2022-09-18T16:08:55.321Z,75.84
2022-09-18T16:13:56.797Z,76.52
2022-09-18T16:19:10.734Z,77.06
2022-09-18T16:24:22.851Z,77.65
2022-09-18T16:29:24.633Z,78.49
2022-09-18T16:34:28.253Z,79.93
2022-09-18T16:39:29.443Z,81.32
2022-09-18T16:44:31.377Z,82.50
2022-09-18T16:49:36.653Z,83.36
2022-09-18T16:54:37.909Z,83.57
2022-09-18T16:59:41.961Z,83.90
2022-09-18T17:04:43.340Z,83.88
2022-09-18T17:09:44.529Z,84.18
2022-09-18T17:14:45.585Z,84.50
2022-09-18T17:19:46.781Z,84.86
2022-09-18T17:24:49.195Z,85.02
2022-09-18T17:29:50.722Z,85.37
2022-09-18T17:34:51.948Z,86.04
2022-09-18T17:39:53.170Z,86.40
2022-09-18T17:44:54.403Z,86.57
2022-09-18T17:49:55.617Z,86.85
2022-09-18T17:54:56.725Z,87.15
2022-09-18T17:59:57.753Z,87.38
2022-09-18T18:04:58.980Z,87.87
2022-09-18T18:10:00.231Z,88.03
2022-09-18T18:15:01.405Z,88.22
2022-09-18T18:20:04.510Z,88.28
2022-09-18T18:25:07.713Z,88.69
2022-09-18T18:30:09.399Z,88.99
2022-09-18T18:35:10.894Z,89.06
2022-09-18T18:40:12.603Z,89.27
2022-09-18T18:45:14.255Z,89.62
2022-09-18T18:50:17.072Z,89.91
2022-09-18T18:55:18.393Z,89.87
2022-09-18T19:00:19.605Z,90.02
2022-09-18T19:05:27.039Z,90.12
2022-09-18T19:10:28.879Z,90.05
2022-09-18T19:15:30.232Z,90.14
2022-09-18T19:20:33.083Z,90.59
2022-09-18T19:25:34.356Z,90.65
2022-09-18T19:30:38.683Z,91.05
2022-09-18T19:35:40.232Z,91.17
2022-09-18T19:40:41.624Z,91.59
2022-09-18T19:45:48.372Z,91.63
2022-09-18T19:50:51.876Z,91.70
2022-09-18T19:55:53.478Z,92.11
2022-09-18T20:00:55.146Z,92.31
2022-09-18T20:05:59.968Z,92.13
2022-09-18T20:11:01.124Z,92.20
2022-09-18T20:16:03.780Z,92.13
2022-09-18T20:21:11.092Z,92.25
2022-09-18T20:26:17.337Z,92.50
2022-09-18T20:31:19.939Z,92.68
2022-09-18T20:36:22.486Z,92.93
2022-09-18T20:41:27.227Z,93.03
2022-09-18T20:46:28.686Z,93.37
2022-09-18T20:51:34.010Z,93.50
2022-09-18T20:56:41.425Z,93.48
2022-09-18T21:01:44.445Z,93.48
2022-09-18T21:06:54.481Z,93.64
2022-09-18T21:11:55.965Z,93.73
2022-09-18T21:16:57.560Z,93.66
2022-09-18T21:21:58.619Z,93.62
2022-09-18T21:26:59.849Z,93.81
2022-09-18T21:32:01.064Z,93.90
2022-09-18T21:37:03.577Z,93.97
2022-09-18T21:42:08.796Z,93.84
2022-09-18T21:47:11.661Z,94.23
2022-09-18T21:52:14.105Z,94.36
2022-09-18T21:57:15.749Z,94.27
2022-09-18T22:02:19.744Z,94.32
2022-09-18T22:07:23.320Z,94.40
2022-09-18T22:12:24.492Z,94.55
2022-09-18T22:17:26.490Z,94.50
2022-09-18T22:22:27.726Z,94.65
2022-09-18T22:27:28.916Z,94.55
2022-09-18T22:32:30.814Z,94.65
2022-09-18T22:37:32.132Z,94.93
2022-09-18T22:42:33.258Z,94.99
2022-09-18T22:47:34.344Z,95.11
2022-09-18T22:52:35.970Z,95.21
2022-09-18T22:57:37.107Z,95.09
2022-09-18T23:02:38.161Z,95.36
2022-09-18T23:07:39.342Z,95.51
2022-09-18T23:12:40.845Z,95.55
2022-09-18T23:17:43.487Z,95.35
2022-09-18T23:22:44.667Z,95.52
2022-09-18T23:27:46.974Z,95.70
2022-09-18T23:32:48.256Z,95.84
2022-09-18T23:37:49.607Z,95.85
2022-09-18T23:42:50.622Z,95.86
2022-09-18T23:47:51.836Z,95.87
2022-09-18T23:52:52.862Z,95.67
2022-09-18T23:57:53.998Z,95.57
